Alta, West Virginia
Current Conditions -  °F | °C
As of 1:15 PM on Monday 26 Jan 2015 (Local Time) from KLWB Reporting Station
Overcast Overcast  
Wind Chill: 39°   Ceiling: 2100
Heat Index: 39°   Visibility: 10mi
Dew Point: 36°   Wind: 0mph
Humidity: 89%   Direction: NA
Pressure: 29.61"   Gusts: NA
Location:  37.8345°N, 80.5736°W
Report Text: KLWB 261815Z AUTO 00000KT 10SM SCT007 SCT014 OVC021 04/02 A2961 RMK AO2 T00400023
Loading
Personal Weather Stations






























Interactive Weather Map New forecast layout! Learn more

10-Day Weather Forecast

Advertisements
Track Severe Weather on mobile